Time;durP1;ratioP1;P1;durP2;ratioP2;P2;SDS_P1;SDS_P2;PMS_P1;PMS_P2;Temp;Humidity;BMP_temperature;BMP_pressure;BME280_temperature;BME280_humidity;BME280_pressure;Samples;Min_cycle;Max_cycle;Signal;HPM_P1;HPM_P2
2021/09/01 00:00:49;;;;;;;14.60;10.00;;;13.10;92.00;;;;;;5004053;28;20014;-76
2021/09/01 00:03:15;;;;;;;19.67;9.67;;;13.00;91.80;;;;;;5002471;28;20383;-76
2021/09/01 00:05:40;;;;;;;14.70;9.90;;;13.10;91.80;;;;;;5003815;28;20021;-76
2021/09/01 00:08:06;;;;;;;12.73;8.90;;;13.10;91.60;;;;;;5003150;28;20029;-76
2021/09/01 00:10:32;;;;;;;16.13;9.53;;;13.00;91.80;;;;;;5003638;28;20089;-76
2021/09/01 00:12:57;;;;;;;11.70;8.20;;;13.00;91.50;;;;;;4985152;28;20061;-75
2021/09/01 00:15:23;;;;;;;12.70;9.40;;;13.00;91.60;;;;;;5002210;28;20026;-76
2021/09/01 00:17:48;;;;;;;15.98;8.85;;;13.00;91.40;;;;;;5002184;28;20022;-76
2021/09/01 00:20:14;;;;;;;12.80;8.73;;;12.90;91.50;;;;;;5003633;28;20018;-76
2021/09/01 00:22:40;;;;;;;11.93;8.80;;;12.80;91.20;;;;;;5003192;28;20014;-75
2021/09/01 00:25:06;;;;;;;16.43;8.90;;;12.90;91.30;;;;;;5003564;28;20018;-76
2021/09/01 00:27:32;;;;;;;14.73;9.30;;;12.80;91.40;;;;;;5002295;28;20068;-76
2021/09/01 00:29:57;;;;;;;13.88;9.45;;;12.80;91.70;;;;;;5003332;28;20029;-76
2021/09/01 00:32:23;;;;;;;13.37;9.07;;;12.70;91.80;;;;;;5002279;28;20064;-76
2021/09/01 00:34:48;;;;;;;13.65;8.90;;;12.70;91.80;;;;;;5002188;28;20049;-76
2021/09/01 00:37:14;;;;;;;10.67;8.40;;;12.70;91.80;;;;;;5003126;28;20061;-76
2021/09/01 00:39:40;;;;;;;13.40;8.93;;;12.70;91.70;;;;;;5002476;28;20021;-76
2021/09/01 00:42:05;;;;;;;12.70;9.07;;;12.70;91.90;;;;;;5001962;28;20341;-76
2021/09/01 00:44:31;;;;;;;14.43;8.50;;;12.60;92.00;;;;;;5002942;28;20033;-76
2021/09/01 00:46:57;;;;;;;13.10;8.52;;;12.60;92.00;;;;;;5002146;28;20022;-76
2021/09/01 00:49:23;;;;;;;12.20;8.67;;;12.60;91.90;;;;;;5001998;28;20233;-76
2021/09/01 00:51:50;;;;;;;12.70;8.82;;;12.50;92.20;;;;;;5001853;28;20367;-76
2021/09/01 00:55:02;;;;;;;13.38;8.30;;;12.50;92.10;;;;;;5002115;28;20033;-76
2021/09/01 00:57:28;;;;;;;14.13;8.80;;;12.50;91.90;;;;;;5000886;28;20049;-76
2021/09/01 00:59:54;;;;;;;15.77;8.53;;;12.50;92.10;;;;;;5002583;28;20022;-76
2021/09/01 01:02:21;;;;;;;12.53;8.70;;;12.50;92.20;;;;;;4985417;28;20026;-76
2021/09/01 01:04:46;;;;;;;14.80;9.18;;;12.50;92.10;;;;;;5001974;28;20018;-76
2021/09/01 01:07:12;;;;;;;12.97;8.53;;;12.50;92.00;;;;;;5002886;28;20029;-76
2021/09/01 01:09:38;;;;;;;12.60;8.98;;;12.50;91.90;;;;;;5003176;28;20030;-76
2021/09/01 01:12:05;;;;;;;12.85;9.20;;;12.50;91.90;;;;;;5001656;28;20014;-76
2021/09/01 01:14:36;;;;;;;12.55;8.55;;;12.40;92.10;;;;;;5000587;28;20018;-76
2021/09/01 01:17:03;;;;;;;16.98;8.70;;;12.40;92.20;;;;;;5001683;28;20240;-75
2021/09/01 01:19:29;;;;;;;14.65;9.20;;;12.40;92.20;;;;;;5001652;28;20031;-75
2021/09/01 01:21:56;;;;;;;12.63;8.60;;;12.30;92.30;;;;;;5002105;28;20320;-76
2021/09/01 01:24:21;;;;;;;12.32;8.75;;;12.40;92.10;;;;;;5001723;28;20030;-76
2021/09/01 01:26:47;;;;;;;12.87;7.83;;;12.40;92.00;;;;;;5002052;28;20014;-76
2021/09/01 01:29:13;;;;;;;15.88;8.68;;;12.20;92.30;;;;;;5002625;28;20038;-76
2021/09/01 01:31:39;;;;;;;12.03;7.93;;;12.20;92.30;;;;;;5002966;28;20034;-75
2021/09/01 01:34:13;;;;;;;16.87;8.70;;;12.20;92.30;;;;;;5001515;28;20068;-75
2021/09/01 01:36:38;;;;;;;10.98;7.90;;;12.20;92.10;;;;;;5001836;28;20216;-76
2021/09/01 01:39:04;;;;;;;11.33;7.83;;;12.30;91.90;;;;;;5002409;28;20046;-76
2021/09/01 01:41:29;;;;;;;11.30;8.33;;;12.20;91.90;;;;;;5001865;28;20030;-76
2021/09/01 01:43:55;;;;;;;15.97;8.77;;;12.20;91.90;;;;;;5001047;28;20025;-73
2021/09/01 01:46:20;;;;;;;10.80;7.93;;;12.20;91.90;;;;;;5001489;28;20034;-74
2021/09/01 01:48:46;;;;;;;12.23;8.43;;;12.10;92.00;;;;;;5002416;28;20022;-74
2021/09/01 01:51:12;;;;;;;15.53;8.33;;;12.00;92.20;;;;;;5002416;28;20034;-74
2021/09/01 01:53:37;;;;;;;10.63;7.80;;;12.00;92.10;;;;;;5002278;28;20022;-74
2021/09/01 01:56:03;;;;;;;15.87;9.60;;;11.90;92.20;;;;;;5002475;28;20076;-74
2021/09/01 01:58:29;;;;;;;13.13;8.18;;;11.90;92.00;;;;;;5001386;28;20026;-74
2021/09/01 02:00:54;;;;;;;11.87;8.77;;;11.80;92.20;;;;;;5001118;28;20053;-74
2021/09/01 02:03:20;;;;;;;12.03;8.53;;;11.80;92.00;;;;;;5001079;28;20049;-74
2021/09/01 02:05:45;;;;;;;12.13;9.13;;;11.80;92.10;;;;;;5002340;28;20019;-74
2021/09/01 02:08:11;;;;;;;12.90;8.13;;;11.80;92.50;;;;;;5002380;28;20027;-74
2021/09/01 02:10:36;;;;;;;11.82;8.00;;;11.80;92.20;;;;;;5002359;28;20080;-74
2021/09/01 02:13:02;;;;;;;13.97;7.40;;;11.70;92.50;;;;;;5000984;28;20023;-73
2021/09/01 02:15:28;;;;;;;10.52;8.00;;;11.80;92.00;;;;;;5002206;28;20081;-73
2021/09/01 02:17:53;;;;;;;10.23;7.53;;;11.60;92.30;;;;;;5001058;28;20026;-74
2021/09/01 02:20:19;;;;;;;11.67;7.90;;;11.60;92.20;;;;;;4984896;28;20326;-74
2021/09/01 02:22:45;;;;;;;9.20;7.23;;;11.60;92.20;;;;;;5000937;28;20027;-74
2021/09/01 02:25:11;;;;;;;10.87;7.23;;;11.60;92.20;;;;;;5001143;28;20019;-74
2021/09/01 02:27:37;;;;;;;10.57;7.15;;;11.60;92.20;;;;;;5002160;28;20033;-74
2021/09/01 02:30:04;;;;;;;9.05;7.45;;;11.50;92.20;;;;;;5000943;28;20018;-73
2021/09/01 02:32:29;;;;;;;11.27;8.57;;;11.50;92.70;;;;;;5003863;28;20022;-74
2021/09/01 02:34:55;;;;;;;9.57;7.13;;;11.40;92.50;;;;;;5004685;28;20026;-74
2021/09/01 02:37:21;;;;;;;9.93;7.17;;;11.40;92.50;;;;;;5004325;28;20245;-74
2021/09/01 02:39:46;;;;;;;9.90;7.60;;;11.40;92.60;;;;;;5005740;28;20018;-74
2021/09/01 02:42:12;;;;;;;16.53;7.70;;;11.40;92.60;;;;;;5005397;28;20025;-74
2021/09/01 02:44:37;;;;;;;13.93;7.60;;;11.40;92.60;;;;;;5005462;28;20022;-74
2021/09/01 02:47:03;;;;;;;12.00;8.95;;;11.40;92.30;;;;;;5004477;28;20018;-73
2021/09/01 02:49:29;;;;;;;14.48;9.10;;;11.40;92.50;;;;;;5004297;28;20030;-74
2021/09/01 02:51:54;;;;;;;13.20;8.63;;;11.40;92.70;;;;;;5005254;28;20033;-74
2021/09/01 02:54:20;;;;;;;20.17;8.23;;;11.40;92.70;;;;;;5005446;28;20029;-74
2021/09/01 02:56:46;;;;;;;14.80;8.40;;;11.30;92.70;;;;;;5005274;28;20018;-74
2021/09/01 02:59:11;;;;;;;10.50;6.73;;;11.30;92.70;;;;;;5003766;28;20018;-74
2021/09/01 03:01:37;;;;;;;21.88;7.72;;;11.30;92.80;;;;;;5004267;28;20038;-73
2021/09/01 03:04:03;;;;;;;17.07;7.33;;;11.30;93.00;;;;;;5003813;28;20056;-74
2021/09/01 03:06:28;;;;;;;12.77;8.03;;;11.20;93.00;;;;;;5005397;28;20018;-74
2021/09/01 03:08:54;;;;;;;16.07;7.80;;;11.20;93.00;;;;;;5005116;28;20244;-74
2021/09/01 03:11:19;;;;;;;25.67;8.10;;;11.20;93.10;;;;;;5005290;28;20031;-74
2021/09/01 03:13:45;;;;;;;12.38;8.25;;;11.30;93.00;;;;;;5004032;28;20357;-73
2021/09/01 03:16:11;;;;;;;13.73;7.57;;;11.20;93.20;;;;;;5004910;28;20030;-74
2021/09/01 03:18:36;;;;;;;9.30;7.27;;;11.30;93.00;;;;;;5003841;28;20313;-73
2021/09/01 03:21:02;;;;;;;11.37;7.40;;;11.20;93.10;;;;;;5004933;28;20022;-73
2021/09/01 03:23:27;;;;;;;10.18;7.47;;;11.20;93.00;;;;;;5003573;28;20325;-73
2021/09/01 03:25:53;;;;;;;8.05;6.55;;;11.30;92.80;;;;;;5004821;28;20045;-74
2021/09/01 03:28:19;;;;;;;18.87;6.70;;;11.20;92.80;;;;;;5004765;28;20336;-74
2021/09/01 03:30:44;;;;;;;7.10;6.03;;;11.10;92.90;;;;;;5004534;28;20033;-74
2021/09/01 03:33:10;;;;;;;9.95;6.90;;;11.10;92.90;;;;;;5003314;28;20329;-74
2021/09/01 03:35:35;;;;;;;7.37;6.37;;;11.00;92.90;;;;;;4987384;28;20029;-73
2021/09/01 03:38:01;;;;;;;7.10;6.07;;;11.00;93.00;;;;;;5003336;28;20085;-74
2021/09/01 03:40:27;;;;;;;8.73;6.77;;;11.00;92.90;;;;;;5003530;28;20022;-73
2021/09/01 03:42:52;;;;;;;12.75;7.45;;;11.00;92.80;;;;;;5003745;28;20074;-73
2021/09/01 03:45:18;;;;;;;8.32;7.30;;;10.90;92.90;;;;;;5002754;28;20256;-73
2021/09/01 03:47:43;;;;;;;7.80;6.23;;;10.90;93.10;;;;;;5004324;28;20033;-74
2021/09/01 03:50:10;;;;;;;10.73;7.10;;;10.90;93.20;;;;;;5004391;28;20380;-74
2021/09/01 03:52:36;;;;;;;;;;;10.90;93.20;;;;;;5004534;28;20253;-73
2021/09/01 03:55:02;;;;;;;9.05;6.70;;;10.90;92.80;;;;;;5003170;28;19901;-74
2021/09/01 03:57:28;;;;;;;9.48;6.68;;;10.90;92.80;;;;;;5003014;28;20049;-74
2021/09/01 03:59:53;;;;;;;9.83;6.30;;;10.80;92.90;;;;;;5004004;28;20025;-73
2021/09/01 04:02:19;;;;;;;13.18;6.57;;;10.80;92.60;;;;;;5003676;28;20029;-74
2021/09/01 04:04:44;;;;;;;8.07;5.85;;;10.70;92.60;;;;;;5002984;28;20030;-73
2021/09/01 04:07:10;;;;;;;9.43;7.07;;;10.70;92.90;;;;;;5003942;28;20377;-74
2021/09/01 04:09:36;;;;;;;9.90;6.93;;;10.70;92.90;;;;;;5002765;28;20097;-73
2021/09/01 04:12:01;;;;;;;9.60;7.30;;;10.70;92.80;;;;;;5003684;28;20359;-74
2021/09/01 04:14:27;;;;;;;9.80;7.60;;;10.70;92.50;;;;;;4990854;28;20022;-74
2021/09/01 04:16:53;;;;;;;11.67;7.20;;;10.80;92.80;;;;;;5003504;28;20042;-73
2021/09/01 04:19:18;;;;;;;11.77;7.60;;;10.90;92.60;;;;;;5002504;28;20329;-74
2021/09/01 04:21:44;;;;;;;9.88;7.15;;;10.90;92.60;;;;;;5001739;28;20602;-72
2021/09/01 04:24:10;;;;;;;9.47;7.10;;;11.00;92.40;;;;;;5002533;28;20045;-74
2021/09/01 04:26:35;;;;;;;11.43;7.77;;;11.00;92.10;;;;;;5002952;28;20053;-74
2021/09/01 04:29:01;;;;;;;11.85;7.30;;;11.10;92.00;;;;;;5003544;28;20026;-73
2021/09/01 04:31:26;;;;;;;12.33;8.07;;;11.10;92.20;;;;;;5002424;28;20134;-73
2021/09/01 04:33:52;;;;;;;10.80;7.30;;;11.10;92.20;;;;;;5003398;28;20317;-74
2021/09/01 04:36:18;;;;;;;13.37;8.40;;;11.10;92.30;;;;;;5003587;28;20033;-74
2021/09/01 04:38:44;;;;;;;10.77;7.15;;;11.10;92.10;;;;;;5001961;28;20034;-73
2021/09/01 04:41:09;;;;;;;12.37;7.73;;;11.10;92.20;;;;;;5002307;28;20029;-73
2021/09/01 04:43:35;;;;;;;9.65;7.28;;;11.10;92.10;;;;;;5001961;28;20064;-73
2021/09/01 04:46:01;;;;;;;10.90;8.02;;;11.10;92.30;;;;;;5002858;28;20022;-74
2021/09/01 04:48:26;;;;;;;10.60;7.93;;;11.10;92.30;;;;;;4985019;28;20029;-74
2021/09/01 04:50:52;;;;;;;11.45;8.02;;;11.10;92.30;;;;;;5002218;28;20028;-74
2021/09/01 04:53:19;;;;;;;12.50;8.83;;;11.20;92.30;;;;;;5001597;28;20025;-73
2021/09/01 04:55:44;;;;;;;18.15;9.40;;;11.20;92.60;;;;;;5002961;28;20730;-69
2021/09/01 04:58:10;;;;;;;13.37;8.67;;;11.20;92.50;;;;;;5002874;28;20042;-70
2021/09/01 05:00:36;;;;;;;16.27;8.15;;;11.20;92.50;;;;;;5002819;28;20018;-70
2021/09/01 05:03:01;;;;;;;15.02;7.95;;;11.00;92.80;;;;;;5003049;28;20022;-70
2021/09/01 05:05:27;;;;;;;14.57;7.87;;;11.00;92.80;;;;;;5003082;28;20265;-71
2021/09/01 05:07:53;;;;;;;19.65;9.25;;;11.20;92.70;;;;;;5002836;28;20018;-70
2021/09/01 05:10:18;;;;;;;17.80;9.20;;;11.20;92.90;;;;;;5002692;28;20092;-70
2021/09/01 05:12:49;;;;;;;14.95;8.70;;;11.30;93.10;;;;;;5002556;28;20030;-69
2021/09/01 05:15:15;;;;;;;18.73;9.40;;;11.40;92.90;;;;;;5001450;28;20022;-70
2021/09/01 05:17:41;;;;;;;15.27;10.00;;;11.50;92.60;;;;;;5001311;28;20134;-70
2021/09/01 05:20:07;;;;;;;15.50;9.75;;;11.60;92.80;;;;;;5001510;28;20082;-70
2021/09/01 05:22:33;;;;;;;15.50;10.15;;;11.60;92.50;;;;;;5001802;28;20022;-70
2021/09/01 05:25:27;;;;;;;16.23;9.33;;;11.50;92.50;;;;;;4985461;28;20025;-70
2021/09/01 05:27:53;;;;;;;17.48;11.43;;;11.70;92.60;;;;;;5000005;28;20034;-70
2021/09/01 05:30:18;;;;;;;15.73;9.23;;;11.60;92.60;;;;;;4985358;28;20018;-70
2021/09/01 05:32:46;;;;;;;17.70;9.23;;;11.80;92.50;;;;;;5002472;28;20029;-70
2021/09/01 05:35:13;;;;;;;22.00;11.43;;;11.90;92.30;;;;;;5001571;28;20022;-69
2021/09/01 05:37:42;;;;;;;15.57;10.25;;;11.90;92.00;;;;;;5002322;28;20069;-69
2021/09/01 05:40:08;;;;;;;22.05;11.90;;;11.80;92.20;;;;;;5002638;28;20344;-70
2021/09/01 05:42:34;;;;;;;24.20;12.88;;;11.70;92.60;;;;;;5001194;28;20069;-70
2021/09/01 05:45:00;;;;;;;20.27;11.63;;;11.70;92.80;;;;;;5002441;28;20034;-70
2021/09/01 05:47:26;;;;;;;20.45;11.48;;;11.80;93.00;;;;;;5002604;28;20046;-70
2021/09/01 05:49:56;;;;;;;18.60;11.00;;;12.00;92.50;;;;;;4988579;28;20069;-70
2021/09/01 05:52:22;;;;;;;16.10;9.80;;;12.00;92.10;;;;;;4985449;28;20041;-70
2021/09/01 05:54:52;;;;;;;14.03;10.07;;;12.10;92.10;;;;;;5001455;28;20022;-70
2021/09/01 05:57:28;;;;;;;16.70;10.25;;;12.20;91.90;;;;;;5002395;28;20320;-70
2021/09/01 05:59:55;;;;;;;19.00;10.07;;;12.10;92.10;;;;;;4986498;28;20384;-70
2021/09/01 06:02:21;;;;;;;19.13;11.13;;;12.20;92.10;;;;;;5002207;28;20250;-70
2021/09/01 06:04:47;;;;;;;17.83;11.55;;;12.30;92.00;;;;;;5001363;28;20041;-69
2021/09/01 06:07:16;;;;;;;18.63;10.97;;;12.30;92.00;;;;;;5002853;28;20030;-70
2021/09/01 06:09:46;;;;;;;17.95;11.10;;;12.30;92.10;;;;;;5005288;28;20022;-70
2021/09/01 06:12:18;;;;;;;19.75;11.18;;;12.40;92.00;;;;;;5005865;28;20213;-69
2021/09/01 06:14:43;;;;;;;21.38;12.77;;;12.50;91.90;;;;;;5004624;28;20093;-70
2021/09/01 06:17:09;;;;;;;22.43;11.93;;;12.50;91.70;;;;;;4988824;28;20014;-70
2021/09/01 06:19:35;;;;;;;22.27;13.43;;;12.60;91.60;;;;;;5004884;28;20034;-70
2021/09/01 06:22:01;;;;;;;19.50;12.37;;;12.60;91.50;;;;;;5006514;28;20018;-71
2021/09/01 06:24:26;;;;;;;20.63;13.00;;;12.70;91.50;;;;;;5006029;28;20224;-70
2021/09/01 06:26:52;;;;;;;23.03;13.93;;;12.60;91.60;;;;;;5004774;28;20022;-70
2021/09/01 06:29:17;;;;;;;22.65;13.25;;;12.50;91.60;;;;;;5005847;28;20372;-69
2021/09/01 06:31:44;;;;;;;18.00;10.87;;;12.50;91.90;;;;;;5005516;28;20085;-69
2021/09/01 06:34:09;;;;;;;22.42;14.40;;;12.70;91.60;;;;;;5005666;28;20021;-70
2021/09/01 06:36:35;;;;;;;26.03;14.67;;;12.70;91.60;;;;;;5005727;28;20093;-70
2021/09/01 06:39:00;;;;;;;27.47;14.83;;;12.80;91.80;;;;;;5004471;28;20058;-70
2021/09/01 06:41:26;;;;;;;27.67;16.03;;;12.80;91.80;;;;;;5005693;28;20023;-70
2021/09/01 06:43:52;;;;;;;27.13;15.30;;;12.90;91.90;;;;;;5005286;28;20021;-70
2021/09/01 06:46:18;;;;;;;28.13;16.93;;;12.80;91.90;;;;;;5003780;28;20014;-70
2021/09/01 06:48:43;;;;;;;27.70;15.33;;;12.90;91.90;;;;;;5005516;28;20260;-70
2021/09/01 06:51:09;;;;;;;23.77;14.97;;;12.90;91.30;;;;;;5005391;28;20103;-70
2021/09/01 06:53:34;;;;;;;30.80;16.43;;;12.90;91.70;;;;;;5005119;28;20034;-69
2021/09/01 06:56:00;;;;;;;30.17;16.93;;;13.10;91.60;;;;;;5005510;28;20030;-70
2021/09/01 06:58:25;;;;;;;31.93;17.47;;;13.20;91.30;;;;;;5005444;28;20294;-70
2021/09/01 07:00:51;;;;;;;27.33;15.80;;;13.30;90.70;;;;;;5005310;28;20383;-70
2021/09/01 07:03:17;;;;;;;28.70;16.57;;;13.20;91.10;;;;;;5004555;28;20077;-70
2021/09/01 07:05:42;;;;;;;30.77;17.97;;;13.30;91.20;;;;;;5004648;28;20041;-70
2021/09/01 07:08:15;;;;;;;31.57;19.90;;;13.40;90.90;;;;;;5004567;28;20325;-70
2021/09/01 07:10:41;;;;;;;29.33;17.20;;;13.40;90.60;;;;;;4987282;28;20026;-70
2021/09/01 07:13:07;;;;;;;30.30;18.83;;;13.20;90.80;;;;;;5004259;28;20289;-70
2021/09/01 07:15:32;;;;;;;26.13;17.27;;;13.10;91.30;;;;;;5003153;28;20026;-69
2021/09/01 07:17:58;;;;;;;29.33;18.43;;;13.20;91.20;;;;;;5003275;28;20018;-70
2021/09/01 07:20:23;;;;;;;31.73;19.00;;;13.30;91.30;;;;;;5004177;28;20032;-70
2021/09/01 07:22:50;;;;;;;34.93;21.97;;;13.40;90.80;;;;;;5004148;28;20332;-70
2021/09/01 07:25:15;;;;;;;32.28;20.80;;;13.30;90.80;;;;;;4987077;28;20089;-70
2021/09/01 07:27:41;;;;;;;35.80;22.03;;;13.30;90.60;;;;;;5004256;28;20034;-69
2021/09/01 07:30:07;;;;;;;34.20;21.80;;;13.30;90.60;;;;;;5004027;28;20027;-70
2021/09/01 07:32:32;;;;;;;30.43;20.07;;;13.40;90.90;;;;;;5002756;28;20026;-70
2021/09/01 07:34:58;;;;;;;32.17;20.70;;;13.60;90.60;;;;;;5004091;28;20038;-70
2021/09/01 07:37:23;;;;;;;32.80;20.47;;;13.80;90.10;;;;;;5004061;28;20101;-70
2021/09/01 07:39:49;;;;;;;31.50;21.17;;;13.80;90.20;;;;;;5004255;28;20026;-70
2021/09/01 07:42:15;;;;;;;31.77;20.43;;;13.90;90.10;;;;;;5003728;28;20038;-70
2021/09/01 07:44:40;;;;;;;32.40;20.90;;;14.00;89.50;;;;;;5003933;28;20087;-70
2021/09/01 07:47:06;;;;;;;28.50;19.57;;;13.70;90.00;;;;;;5003539;28;20025;-70
2021/09/01 07:49:33;;;;;;;37.37;22.73;;;13.90;90.00;;;;;;5003900;28;20092;-70
2021/09/01 07:51:59;;;;;;;38.92;21.17;;;13.90;88.90;;;;;;5003851;28;20022;-71
2021/09/01 07:54:24;;;;;;;29.90;21.20;;;13.90;89.50;;;;;;5002693;28;20038;-70
2021/09/01 07:56:50;;;;;;;34.87;23.03;;;14.00;89.40;;;;;;5003655;28;20026;-70
2021/09/01 07:59:15;;;;;;;32.37;22.67;;;14.20;89.10;;;;;;5003619;28;20018;-71
2021/09/01 08:01:41;;;;;;;37.27;22.63;;;14.20;88.30;;;;;;5003296;28;20025;-70
2021/09/01 08:04:07;;;;;;;39.20;23.33;;;13.90;88.80;;;;;;5003433;28;20217;-70
2021/09/01 08:06:32;;;;;;;33.23;22.97;;;13.80;90.40;;;;;;5003588;28;20010;-71
2021/09/01 08:08:58;;;;;;;34.93;23.10;;;14.00;90.00;;;;;;5003447;28;20085;-71
2021/09/01 08:11:24;;;;;;;33.00;21.93;;;14.20;89.20;;;;;;5003403;28;20022;-71
2021/09/01 08:13:49;;;;;;;32.63;24.30;;;14.30;88.40;;;;;;5001967;28;20030;-69
2021/09/01 08:16:15;;;;;;;32.43;22.83;;;14.10;87.70;;;;;;4992109;28;20101;-70
2021/09/01 08:18:41;;;;;;;34.23;24.37;;;14.20;88.00;;;;;;5002795;28;20329;-70
2021/09/01 08:21:06;;;;;;;31.93;22.03;;;14.40;87.80;;;;;;5003156;28;20092;-69
2021/09/01 08:23:32;;;;;;;35.83;24.80;;;14.60;88.30;;;;;;5002726;28;20019;-69
2021/09/01 08:25:57;;;;;;;34.53;23.63;;;14.70;86.50;;;;;;5002933;28;20030;-70
2021/09/01 08:28:23;;;;;;;33.10;22.67;;;14.80;86.90;;;;;;5002845;28;20250;-69
2021/09/01 08:30:49;;;;;;;30.17;21.17;;;14.80;86.20;;;;;;5002205;28;20026;-70
2021/09/01 08:33:14;;;;;;;32.73;22.60;;;14.80;85.80;;;;;;5002618;28;20303;-69
2021/09/01 08:35:40;;;;;;;32.63;21.77;;;14.80;85.60;;;;;;5002886;28;20070;-69
2021/09/01 08:38:05;;;;;;;31.87;22.37;;;14.90;86.20;;;;;;5002634;28;20080;-70
2021/09/01 08:40:31;;;;;;;29.67;21.43;;;14.90;85.60;;;;;;4991384;28;20027;-69
2021/09/01 08:42:56;;;;;;;31.77;21.67;;;14.70;85.70;;;;;;4991122;28;20027;-69
2021/09/01 08:45:22;;;;;;;28.43;19.53;;;14.70;86.50;;;;;;5001062;28;20018;-70
2021/09/01 08:47:48;;;;;;;28.33;19.97;;;14.60;87.40;;;;;;5001456;28;20057;-70
2021/09/01 08:50:14;;;;;;;28.50;20.27;;;14.60;86.70;;;;;;4985437;28;20026;-70
2021/09/01 08:52:40;;;;;;;30.67;21.17;;;14.60;86.60;;;;;;5001248;28;20092;-70
2021/09/01 08:55:09;;;;;;;27.30;19.80;;;14.60;86.10;;;;;;5002522;28;20272;-69
2021/09/01 08:57:45;;;;;;;47.85;20.88;;;14.60;87.50;;;;;;5002500;28;20030;-69
2021/09/01 09:00:11;;;;;;;27.02;18.88;;;14.70;86.30;;;;;;5002070;28;20026;-68
2021/09/01 09:02:37;;;;;;;27.83;18.88;;;14.70;87.10;;;;;;4999004;28;20029;-70
2021/09/01 09:05:08;;;;;;;33.17;19.97;;;14.80;86.20;;;;;;4991589;28;20038;-67
2021/09/01 09:07:53;;;;;;;27.50;20.15;;;14.80;86.50;;;;;;5001242;28;20041;-70
2021/09/01 09:10:45;;;;;;;27.67;17.40;;;15.00;87.70;;;;;;5001051;28;20077;-70
2021/09/01 09:13:16;;;;;;;26.58;19.38;;;15.00;87.60;;;;;;4998304;28;20049;-70
2021/09/01 09:15:42;;;;;;;28.83;20.63;;;15.10;88.00;;;;;;5001175;28;20328;-73
2021/09/01 09:18:27;;;;;;;24.80;17.58;;;15.10;88.20;;;;;;5000872;28;20332;-71
2021/09/01 09:21:20;;;;;;;23.88;17.83;;;15.20;87.40;;;;;;5000649;28;20380;-71
2021/09/01 09:23:46;;;;;;;25.75;16.33;;;15.20;86.90;;;;;;5002003;28;20038;-72
2021/09/01 09:26:23;;;;;;;26.70;16.35;;;15.30;85.50;;;;;;5002164;28;20017;-68
2021/09/01 09:29:12;;;;;;;23.02;15.50;;;15.50;84.50;;;;;;4994051;28;20054;-67
2021/09/01 09:31:38;;;;;;;24.45;14.57;;;15.60;84.50;;;;;;5000959;28;20101;-67
2021/09/01 09:34:09;;;;;;;25.15;16.10;;;15.80;85.30;;;;;;4997025;28;20221;-67
2021/09/01 09:36:35;;;;;;;19.95;13.90;;;15.80;86.80;;;;;;4992372;28;20365;-67
2021/09/01 09:39:00;;;;;;;20.73;13.00;;;16.00;84.10;;;;;;5001544;28;20038;-67
2021/09/01 09:41:29;;;;;;;21.60;13.67;;;16.10;81.70;;;;;;5001594;28;20029;-67
2021/09/01 09:44:05;;;;;;;16.83;11.15;;;16.20;83.00;;;;;;5005827;28;20026;-67
2021/09/01 09:46:30;;;;;;;13.95;9.13;;;16.20;82.50;;;;;;5005987;28;20031;-68
2021/09/01 09:49:06;;;;;;;23.03;10.90;;;16.30;78.90;;;;;;5005807;28;20041;-67
2021/09/01 09:51:40;;;;;;;25.58;10.18;;;16.50;76.20;;;;;;5005830;28;20042;-67
2021/09/01 09:54:19;;;;;;;16.58;10.60;;;16.60;80.40;;;;;;5005786;28;20022;-68
2021/09/01 09:56:45;;;;;;;16.98;11.20;;;16.70;78.90;;;;;;4988984;28;20050;-73
2021/09/01 09:59:18;;;;;;;15.90;11.07;;;16.60;80.00;;;;;;5004634;28;20049;-76
2021/09/01 10:01:44;;;;;;;15.15;10.32;;;16.70;79.70;;;;;;5004546;28;20014;-75
2021/09/01 10:04:10;;;;;;;13.20;8.90;;;16.70;79.90;;;;;;4987216;28;20064;-76
2021/09/01 10:06:35;;;;;;;11.60;7.23;;;16.70;80.10;;;;;;4999257;28;20025;-76
2021/09/01 10:09:02;;;;;;;9.17;6.07;;;16.80;80.10;;;;;;5001037;28;20082;-76
2021/09/01 10:11:27;;;;;;;11.05;7.63;;;16.90;78.40;;;;;;5004879;28;20022;-79
2021/09/01 10:13:53;;;;;;;10.07;5.70;;;17.10;72.90;;;;;;5004641;28;20057;-78
2021/09/01 10:16:36;;;;;;;11.33;5.87;;;17.10;72.90;;;;;;5003374;28;20125;-76
2021/09/01 10:19:09;;;;;;;9.05;6.55;;;17.40;73.50;;;;;;5004920;28;20014;-76
2021/09/01 10:21:38;;;;;;;9.88;6.63;;;17.50;74.80;;;;;;5004941;28;20215;-77
2021/09/01 10:24:17;;;;;;;8.43;5.63;;;17.50;74.00;;;;;;5004168;28;20029;-79
2021/09/01 10:27:08;;;;;;;10.10;6.18;;;17.80;71.50;;;;;;4974309;28;20102;-76
2021/09/01 10:29:41;;;;;;;6.68;4.28;;;18.00;73.30;;;;;;4986071;28;20022;-78
2021/09/01 10:32:42;;;;;;;6.72;4.60;;;18.20;68.20;;;;;;4983081;28;20033;-78
2021/09/01 10:35:17;;;;;;;9.23;5.38;;;18.40;69.10;;;;;;5004168;28;20015;-78
2021/09/01 10:37:43;;;;;;;8.27;5.40;;;18.50;68.60;;;;;;4992863;28;20062;-76
2021/09/01 10:40:21;;;;;;;6.95;4.57;;;18.60;66.60;;;;;;5002245;28;20042;-76
2021/09/01 10:42:53;;;;;;;7.45;4.88;;;18.80;64.60;;;;;;5004943;28;20014;-76
2021/09/01 10:45:21;;;;;;;7.88;4.75;;;18.90;65.60;;;;;;4990340;28;20014;-76
2021/09/01 10:47:50;;;;;;;6.72;5.03;;;19.00;65.10;;;;;;5004896;28;20138;-76
2021/09/01 10:50:16;;;;;;;13.25;5.97;;;19.20;60.60;;;;;;5005740;28;20033;-77
2021/09/01 10:53:06;;;;;;;8.70;5.15;;;19.50;63.40;;;;;;4975469;28;20027;-75
2021/09/01 10:55:32;;;;;;;7.68;4.97;;;19.60;64.90;;;;;;4986270;28;20019;-76
2021/09/01 10:58:17;;;;;;;9.98;5.07;;;19.70;61.40;;;;;;4996252;28;20129;-76
2021/09/01 11:00:43;;;;;;;8.13;5.30;;;19.60;63.60;;;;;;5005742;28;20233;-76
2021/09/01 11:03:08;;;;;;;6.40;4.90;;;19.60;61.80;;;;;;5003642;28;20029;-76
2021/09/01 11:05:34;;;;;;;10.10;5.83;;;19.70;62.90;;;;;;5004430;28;20261;-76
2021/09/01 11:08:00;;;;;;;7.53;5.53;;;19.70;62.40;;;;;;4997166;28;20387;-76
2021/09/01 11:10:29;;;;;;;9.23;5.93;;;19.60;65.00;;;;;;5002012;28;20090;-76
2021/09/01 11:13:00;;;;;;;8.77;5.07;;;19.60;65.40;;;;;;5003691;28;20041;-75
2021/09/01 11:15:27;;;;;;;9.85;5.35;;;19.60;64.10;;;;;;5002702;28;20236;-78
2021/09/01 11:18:05;;;;;;;5.95;4.57;;;19.50;60.90;;;;;;5004584;28;20289;-78
2021/09/01 11:20:30;;;;;;;6.65;5.10;;;19.60;58.60;;;;;;5004059;28;20097;-78
2021/09/01 11:22:59;;;;;;;9.90;5.13;;;19.90;63.40;;;;;;5002834;28;20033;-78
2021/09/01 11:25:24;;;;;;;8.73;5.88;;;20.30;62.50;;;;;;5003500;28;20045;-78
2021/09/01 11:27:55;;;;;;;8.23;5.77;;;20.80;62.40;;;;;;5003678;28;20057;-77
2021/09/01 11:30:20;;;;;;;7.30;4.75;;;21.30;63.20;;;;;;5003464;28;20030;-77
2021/09/01 11:32:52;;;;;;;6.70;5.07;;;21.60;60.20;;;;;;5003296;28;20432;-77
2021/09/01 11:35:21;;;;;;;7.25;4.63;;;21.90;59.20;;;;;;5004740;28;20030;-76
2021/09/01 11:38:03;;;;;;;7.57;4.72;;;22.10;57.80;;;;;;4993724;28;20027;-77
2021/09/01 11:40:40;;;;;;;7.72;5.35;;;22.20;55.70;;;;;;4997445;28;20022;-77
2021/09/01 11:43:13;;;;;;;10.77;5.32;;;22.50;56.40;;;;;;4986761;28;20229;-76
2021/09/01 11:45:45;;;;;;;8.27;5.18;;;22.90;55.00;;;;;;4990203;28;20026;-76
2021/09/01 11:48:11;;;;;;;6.15;4.55;;;23.40;55.50;;;;;;5002942;28;20220;-76
2021/09/01 11:50:44;;;;;;;7.50;4.90;;;23.50;48.50;;;;;;5001954;28;20010;-76
2021/09/01 11:53:17;;;;;;;8.13;4.60;;;23.60;52.00;;;;;;5002722;28;20261;-76
2021/09/01 11:55:43;;;;;;;8.38;4.90;;;24.10;51.30;;;;;;4985992;28;20034;-76
2021/09/01 11:58:18;;;;;;;9.20;4.93;;;24.60;49.50;;;;;;5002744;28;20027;-76
2021/09/01 12:00:48;;;;;;;8.18;4.47;;;24.80;48.10;;;;;;4986544;28;20022;-76
2021/09/01 12:03:14;;;;;;;8.63;5.00;;;24.90;45.40;;;;;;5002727;28;20317;-76
2021/09/01 12:05:43;;;;;;;8.40;4.70;;;25.20;47.30;;;;;;4997298;28;20094;-76
2021/09/01 12:08:16;;;;;;;7.13;5.07;;;24.90;46.40;;;;;;4989209;28;20048;-76
2021/09/01 12:10:43;;;;;;;7.15;4.97;;;25.00;44.80;;;;;;4974316;28;20332;-77
2021/09/01 12:13:09;;;;;;;8.82;4.57;;;25.50;46.20;;;;;;4993486;28;20019;-76
2021/09/01 12:15:34;;;;;;;8.60;4.88;;;26.90;44.90;;;;;;4992596;28;20115;-76
2021/09/01 12:18:03;;;;;;;;;;;28.10;42.70;;;;;;4992550;28;20035;-76
2021/09/01 12:20:33;;;;;;;7.80;4.90;;;28.90;40.60;;;;;;4991851;28;19902;-77
2021/09/01 12:22:59;;;;;;;6.13;4.72;;;29.80;37.80;;;;;;4984751;28;20018;-76
2021/09/01 12:25:24;;;;;;;7.22;4.28;;;30.60;38.70;;;;;;4984061;28;20053;-76
2021/09/01 12:28:06;;;;;;;6.53;5.20;;;32.10;36.80;;;;;;4982924;28;20057;-77
2021/09/01 12:30:35;;;;;;;5.57;4.40;;;32.10;34.60;;;;;;4983117;28;20089;-77
2021/09/01 12:33:03;;;;;;;8.07;5.00;;;30.20;36.10;;;;;;4982524;28;20321;-77
2021/09/01 12:35:31;;;;;;;6.00;4.68;;;31.10;35.70;;;;;;4999004;28;20097;-77
2021/09/01 12:37:57;;;;;;;6.55;5.00;;;31.00;34.40;;;;;;5001983;28;20022;-76